createdAt,value
2023-03-04T00:00:48.195Z,101639.66
2023-03-04T00:03:16.729Z,101635.72
2023-03-04T00:05:45.535Z,101636.43
2023-03-04T00:08:13.826Z,101633.52
2023-03-04T00:10:42.308Z,101631.78
2023-03-04T00:13:28.397Z,101627.48
2023-03-04T00:15:56.878Z,101624.73
2023-03-04T00:18:26.492Z,101622.15
2023-03-04T00:20:55.708Z,101623.55
2023-03-04T00:23:24.265Z,101624.60
2023-03-04T00:25:53.155Z,101618.05
2023-03-04T00:28:21.738Z,101615.80
2023-03-04T00:30:50.236Z,101614.27
2023-03-04T00:33:18.908Z,101611.85
2023-03-04T00:35:47.297Z,101609.05
2023-03-04T00:38:16.888Z,101610.60
2023-03-04T00:40:45.367Z,101602.65
2023-03-04T00:43:14.438Z,101601.44
2023-03-04T00:45:43.002Z,101594.36
2023-03-04T00:48:12.980Z,101594.70
2023-03-04T00:50:42.668Z,101592.98
2023-03-04T00:53:11.046Z,101591.94
2023-03-04T00:55:42.086Z,101585.21
2023-03-04T00:58:10.874Z,101582.98
2023-03-04T01:00:41.300Z,101587.27
2023-03-04T01:03:09.786Z,101586.23
2023-03-04T01:05:39.081Z,101584.48
2023-03-04T01:08:07.700Z,101582.23
2023-03-04T01:10:39.522Z,101577.41
2023-03-04T01:13:07.902Z,101570.84
2023-03-04T01:15:36.695Z,101574.46
2023-03-04T01:18:09.509Z,101573.41
2023-03-04T01:20:38.372Z,101571.66
2023-03-04T01:23:06.766Z,101573.40
2023-03-04T01:25:35.433Z,101571.14
2023-03-04T01:28:04.317Z,101568.70
2023-03-04T01:30:36.501Z,101570.92
2023-03-04T01:33:06.799Z,101574.20
2023-03-04T01:35:36.630Z,101573.15
2023-03-04T01:38:05.397Z,101573.13
2023-03-04T01:40:33.791Z,101573.63
2023-03-04T01:43:02.979Z,101574.28
2023-03-04T01:45:31.869Z,101574.95
2023-03-04T01:48:01.997Z,101572.87
2023-03-04T01:50:33.029Z,101570.80
2023-03-04T01:53:02.328Z,101570.29
2023-03-04T01:55:31.012Z,101569.92
2023-03-04T01:57:59.489Z,101570.09
2023-03-04T02:00:32.689Z,101571.11
2023-03-04T02:03:09.202Z,101571.80
2023-03-04T02:05:41.420Z,101578.86
2023-03-04T02:08:09.800Z,101579.23
2023-03-04T02:10:38.698Z,101573.70
2023-03-04T02:13:07.283Z,101572.68
2023-03-04T02:15:35.791Z,101572.16
2023-03-04T02:18:21.247Z,101573.38
2023-03-04T02:20:53.091Z,101571.30
2023-03-04T02:23:57.838Z,101566.84
2023-03-04T02:26:30.629Z,101563.38
2023-03-04T02:29:01.142Z,101564.73
2023-03-04T02:31:36.247Z,101570.95
2023-03-04T02:34:12.633Z,101575.45
2023-03-04T02:36:41.216Z,101574.77
2023-03-04T02:39:12.566Z,101574.26
2023-03-04T02:41:41.401Z,101570.45
2023-03-04T02:44:19.124Z,101572.52
2023-03-04T02:46:48.009Z,101573.02
2023-03-04T02:49:17.352Z,101570.42
2023-03-04T02:51:45.924Z,101570.59
2023-03-04T02:54:16.360Z,101571.98
2023-03-04T02:56:49.244Z,101568.72
2023-03-04T02:59:18.025Z,101572.52
2023-03-04T03:01:47.883Z,101572.35
2023-03-04T03:04:16.522Z,101572.55
2023-03-04T03:06:45.933Z,101578.60
2023-03-04T03:09:17.578Z,101580.50
2023-03-04T03:11:46.365Z,101579.43
2023-03-04T03:14:14.996Z,101581.15
2023-03-04T03:16:43.738Z,101584.38
2023-03-04T03:19:12.727Z,101584.00
2023-03-04T03:21:41.617Z,101588.27
2023-03-04T03:24:10.209Z,101587.88
2023-03-04T03:26:40.215Z,101586.98
2023-03-04T03:29:09.415Z,101583.51
2023-03-04T03:31:40.037Z,101586.40
2023-03-04T03:34:09.273Z,101587.77
2023-03-04T03:36:39.048Z,101591.04
2023-03-04T03:39:12.516Z,101591.38
2023-03-04T03:41:42.258Z,101589.95
2023-03-04T03:44:10.434Z,101588.04
2023-03-04T03:46:40.554Z,101580.40
2023-03-04T03:49:09.029Z,101582.09
2023-03-04T03:51:38.329Z,101578.94
2023-03-04T03:54:06.812Z,101584.23
2023-03-04T03:56:40.411Z,101583.15
2023-03-04T03:59:09.096Z,101586.05
2023-03-04T04:01:38.015Z,101584.33
2023-03-04T04:04:06.569Z,101582.79
2023-03-04T04:06:34.948Z,101583.30
2023-03-04T04:09:03.327Z,101580.86
2023-03-04T04:11:32.113Z,101579.82
2023-03-04T04:14:00.401Z,101579.62
2023-03-04T04:16:28.917Z,101579.04
2023-03-04T04:18:57.659Z,101573.50
2023-03-04T04:21:26.766Z,101570.98
2023-03-04T04:23:55.658Z,101573.41
2023-03-04T04:26:24.039Z,101572.95
2023-03-04T04:28:52.401Z,101572.48
2023-03-04T04:31:21.009Z,101576.48
2023-03-04T04:33:49.386Z,101575.81
2023-03-04T04:36:17.943Z,101573.41
2023-03-04T04:38:51.139Z,101574.29
2023-03-04T04:41:25.770Z,101574.96
2023-03-04T04:43:54.037Z,101579.98
2023-03-04T04:46:22.665Z,101577.25
2023-03-04T04:48:51.304Z,101578.98
2023-03-04T04:51:19.698Z,101580.02
2023-03-04T04:53:49.305Z,101575.02
2023-03-04T04:56:21.370Z,101576.55
2023-03-04T04:58:49.896Z,101581.70
2023-03-04T05:01:18.359Z,101585.45
2023-03-04T05:03:58.683Z,101590.60
2023-03-04T05:06:27.457Z,101594.02
2023-03-04T05:08:55.935Z,101596.21
2023-03-04T05:11:24.622Z,101600.15
2023-03-04T05:13:53.103Z,101599.98
2023-03-04T05:16:21.713Z,101603.95
2023-03-04T05:18:50.270Z,101606.36
2023-03-04T05:21:18.760Z,101607.76
2023-03-04T05:23:47.337Z,101607.06
2023-03-04T05:26:17.093Z,101613.94
2023-03-04T05:28:45.743Z,101615.12
2023-03-04T05:31:14.189Z,101610.45
2023-03-04T05:33:43.001Z,101616.09
2023-03-04T05:36:11.587Z,101613.64
2023-03-04T05:38:40.060Z,101614.64
2023-03-04T05:41:08.953Z,101616.00
2023-03-04T05:43:38.660Z,101615.29
2023-03-04T05:46:07.692Z,101617.05
2023-03-04T05:48:36.245Z,101614.67
2023-03-04T05:51:05.340Z,101616.61
2023-03-04T05:53:37.192Z,101612.01
2023-03-04T05:56:08.747Z,101609.66
2023-03-04T05:58:37.534Z,101608.29
2023-03-04T06:01:11.232Z,101607.13
2023-03-04T06:03:39.857Z,101609.39
2023-03-04T06:06:08.407Z,101612.34
2023-03-04T06:08:37.703Z,101612.33
2023-03-04T06:11:06.402Z,101607.85
2023-03-04T06:13:36.418Z,101608.43
2023-03-04T06:16:05.622Z,101604.11
2023-03-04T06:18:33.976Z,101605.70
2023-03-04T06:21:07.174Z,101603.69
2023-03-04T06:23:35.752Z,101604.21
2023-03-04T06:26:04.251Z,101606.92
2023-03-04T06:28:34.964Z,101607.19
2023-03-04T06:31:03.514Z,101606.85
2023-03-04T06:33:32.849Z,101605.43
2023-03-04T06:36:01.639Z,101605.52
2023-03-04T06:38:30.777Z,101596.96
2023-03-04T06:41:06.717Z,101593.63
2023-03-04T06:43:35.368Z,101596.02
2023-03-04T06:46:07.535Z,101598.77
2023-03-04T06:48:36.840Z,101594.89
2023-03-04T06:54:24.594Z,101603.44
2023-03-04T06:56:53.484Z,101598.73
2023-03-04T06:59:22.373Z,101601.41
2023-03-04T07:01:50.946Z,101605.64
2023-03-04T07:04:19.392Z,101603.41
2023-03-04T07:06:48.646Z,101598.91
2023-03-04T07:09:19.059Z,101598.25
2023-03-04T07:11:48.455Z,101601.63
2023-03-04T07:14:18.572Z,101604.00
2023-03-04T07:16:47.404Z,101602.75
2023-03-04T07:19:16.044Z,101598.23
2023-03-04T07:21:44.524Z,101596.02
2023-03-04T07:24:14.040Z,101596.14
2023-03-04T07:26:42.614Z,101604.45
2023-03-04T07:29:13.764Z,101607.21
2023-03-04T07:31:42.231Z,101604.92
2023-03-04T07:34:13.380Z,101605.38
2023-03-04T07:36:42.588Z,101605.12
2023-03-04T07:39:13.435Z,101602.92
2023-03-04T07:41:42.609Z,101601.73
2023-03-04T07:44:13.296Z,101598.85
2023-03-04T07:46:43.870Z,101599.57
2023-03-04T07:49:13.922Z,101600.64
2023-03-04T07:51:42.168Z,101601.36
2023-03-04T07:54:10.754Z,101599.48
2023-03-04T07:56:38.990Z,101598.95
2023-03-04T07:59:08.074Z,101600.52
2023-03-04T08:01:37.314Z,101599.49
2023-03-04T08:04:06.555Z,101602.43
2023-03-04T08:06:36.466Z,101598.27
2023-03-04T08:09:09.248Z,101593.59
2023-03-04T08:11:38.209Z,101585.98
2023-03-04T08:14:07.910Z,101583.72
2023-03-04T08:16:36.211Z,101583.02
2023-03-04T08:19:05.846Z,101583.00
2023-03-04T08:21:34.380Z,101579.86
2023-03-04T08:24:08.788Z,101576.55
2023-03-04T08:26:42.213Z,101573.94
2023-03-04T08:29:16.517Z,101573.95
2023-03-04T08:31:48.730Z,101570.30
2023-03-04T08:34:19.001Z,101565.27
2023-03-04T08:36:52.294Z,101563.00
2023-03-04T08:39:21.183Z,101558.82
2023-03-04T08:41:49.975Z,101558.78
2023-03-04T08:44:18.552Z,101553.91
2023-03-04T08:46:47.033Z,101550.94
2023-03-04T08:49:18.586Z,101545.71
2023-03-04T08:51:47.170Z,101539.64
2023-03-04T08:54:15.958Z,101536.54
2023-03-04T08:56:44.741Z,101529.24
2023-03-04T08:59:13.948Z,101529.06
2023-03-04T09:01:42.208Z,101526.45
2023-03-04T09:04:11.422Z,101526.09
2023-03-04T09:06:41.199Z,101525.04
2023-03-04T09:09:09.911Z,101525.90
2023-03-04T09:11:41.469Z,101526.59
2023-03-04T09:14:10.249Z,101518.95
2023-03-04T09:16:38.937Z,101512.73
2023-03-04T09:19:07.549Z,101513.08
2023-03-04T09:21:40.916Z,101510.48
2023-03-04T09:24:09.395Z,101502.86
2023-03-04T09:26:38.006Z,101494.70
2023-03-04T09:29:07.627Z,101490.85
2023-03-04T09:31:36.438Z,101488.22
2023-03-04T09:34:06.738Z,101483.36
2023-03-04T09:36:35.187Z,101476.73
2023-03-04T09:39:07.756Z,101470.98
2023-03-04T09:41:42.796Z,101465.74
2023-03-04T09:44:15.878Z,101456.17
2023-03-04T09:46:46.031Z,101452.12
2023-03-04T09:49:14.685Z,101450.50
2023-03-04T09:51:49.113Z,101441.62
2023-03-04T09:54:26.798Z,101442.13
2023-03-04T09:57:06.445Z,101432.75
2023-03-04T09:59:43.730Z,101427.89
2023-03-04T10:02:23.982Z,101423.19
2023-03-04T10:04:53.635Z,101417.65
2023-03-04T10:10:48.948Z,101407.58
2023-03-04T10:13:22.517Z,101403.61
2023-03-04T10:15:54.131Z,101402.03
2023-03-04T10:18:37.106Z,101398.89
2023-03-04T10:21:23.437Z,101391.91
2023-03-04T10:23:53.816Z,101387.04
2023-03-04T10:26:29.976Z,101378.52
2023-03-04T10:28:58.349Z,101374.14
2023-03-04T10:31:37.296Z,101367.02
2023-03-04T10:34:07.260Z,101365.99
2023-03-04T10:36:55.547Z,101365.11
2023-03-04T10:39:42.543Z,101358.48
2023-03-04T10:42:15.547Z,101353.23
2023-03-04T10:44:52.789Z,101348.54
2023-03-04T10:47:26.520Z,101344.54
2023-03-04T10:50:01.069Z,101343.98
2023-03-04T10:52:31.503Z,101337.71
2023-03-04T10:55:01.389Z,101332.30
2023-03-04T10:57:32.653Z,101328.68
2023-03-04T11:00:01.107Z,101325.59
2023-03-04T11:02:35.623Z,101324.38
2023-03-04T11:05:17.922Z,101320.52
2023-03-04T11:07:56.666Z,101311.64
2023-03-04T11:10:27.395Z,101305.33
2023-03-04T11:13:02.763Z,101299.58
2023-03-04T11:15:31.821Z,101296.76
2023-03-04T11:18:05.113Z,101292.92
2023-03-04T11:20:36.660Z,101286.18
2023-03-04T11:23:07.197Z,101283.63
2023-03-04T11:25:49.390Z,101285.27
2023-03-04T11:28:49.823Z,101288.08
2023-03-04T11:31:26.014Z,101282.41
2023-03-04T11:34:02.365Z,101280.86
2023-03-04T11:36:37.287Z,101275.48
2023-03-04T11:39:08.746Z,101273.91
2023-03-04T11:41:39.378Z,101270.09
2023-03-04T11:44:09.118Z,101262.80
2023-03-04T11:46:55.601Z,101259.14
2023-03-04T11:49:46.100Z,101256.81
2023-03-04T11:52:17.451Z,101252.77
2023-03-04T11:54:57.702Z,101250.41
2023-03-04T11:57:42.563Z,101246.70
2023-03-04T12:00:16.687Z,101238.27
2023-03-04T12:02:50.786Z,101235.71
2023-03-04T12:05:36.791Z,101227.61
2023-03-04T12:08:22.520Z,101224.92
2023-03-04T12:11:08.659Z,101223.98
2023-03-04T12:14:02.431Z,101218.20
2023-03-04T12:16:31.056Z,101214.21
2023-03-04T12:19:17.318Z,101214.79
2023-03-04T12:22:23.380Z,101212.46
2023-03-04T12:25:10.834Z,101209.58
2023-03-04T12:27:48.600Z,101210.67
2023-03-04T12:30:47.815Z,101206.15
2023-03-04T12:33:35.856Z,101205.10
2023-03-04T12:36:07.492Z,101200.92
2023-03-04T12:39:18.241Z,101198.86
2023-03-04T12:41:50.634Z,101198.98
2023-03-04T12:44:20.317Z,101196.45
2023-03-04T12:47:11.804Z,101194.55
2023-03-04T12:50:20.236Z,101194.81
2023-03-04T12:53:30.577Z,101194.56
2023-03-04T12:55:59.034Z,101200.54
2023-03-04T12:58:30.003Z,101195.00
2023-03-04T13:01:23.932Z,101185.30
2023-03-04T13:04:11.410Z,101182.02
2023-03-04T13:07:01.156Z,101176.83
2023-03-04T13:09:42.422Z,101178.89
2023-03-04T13:12:25.654Z,101177.13
2023-03-04T13:15:10.135Z,101176.59
2023-03-04T13:18:00.432Z,101172.44
2023-03-04T13:20:31.541Z,101170.70
2023-03-04T13:23:14.985Z,101168.28
2023-03-04T13:25:50.808Z,101164.62
2023-03-04T13:28:32.316Z,101156.27
2023-03-04T13:31:09.960Z,101153.96
2023-03-04T13:33:39.438Z,101150.10
2023-03-04T13:36:26.629Z,101147.98
2023-03-04T13:39:03.651Z,101139.83
2023-03-04T13:41:51.792Z,101134.80
2023-03-04T13:44:36.620Z,101130.12
2023-03-04T13:47:27.887Z,101122.15
2023-03-04T13:50:30.126Z,101116.55
2023-03-04T13:53:01.354Z,101110.91
2023-03-04T13:55:41.319Z,101108.73
2023-03-04T13:58:18.253Z,101102.25
2023-03-04T14:00:52.645Z,101102.52
2023-03-04T14:03:26.214Z,101094.48
2023-03-04T14:06:10.854Z,101089.91
2023-03-04T14:08:39.433Z,101083.06
2023-03-04T14:11:39.787Z,101076.03
2023-03-04T14:14:12.341Z,101073.36
2023-03-04T14:16:50.477Z,101066.93
2023-03-04T14:19:36.247Z,101062.25
2023-03-04T14:22:19.559Z,101058.08
2023-03-04T14:25:04.272Z,101053.38
2023-03-04T14:27:36.251Z,101053.48
2023-03-04T14:30:05.912Z,101045.27
2023-03-04T14:32:34.182Z,101036.39
2023-03-04T14:35:07.347Z,101033.30
2023-03-04T14:37:49.880Z,101032.45
2023-03-04T14:40:29.616Z,101026.94
2023-03-04T14:43:01.815Z,101021.23
2023-03-04T14:45:30.329Z,101023.15
2023-03-04T14:48:01.907Z,101017.77
2023-03-04T14:50:30.499Z,101016.56
2023-03-04T14:53:11.183Z,101011.41
2023-03-04T14:56:04.739Z,101012.73
2023-03-04T14:58:38.060Z,101010.86
2023-03-04T15:01:17.732Z,101008.83
2023-03-04T15:04:08.307Z,101006.21
2023-03-04T15:07:01.744Z,101002.63
2023-03-04T15:09:30.730Z,101005.67
2023-03-04T15:12:04.507Z,101002.99
2023-03-04T15:14:46.338Z,101000.90
2023-03-04T15:17:42.784Z,101000.38
2023-03-04T15:20:11.344Z,100993.86
2023-03-04T15:22:47.405Z,100989.52
2023-03-04T15:25:16.315Z,100988.52
2023-03-04T15:27:45.947Z,100989.40
2023-03-04T15:30:19.597Z,100989.13
2023-03-04T15:32:51.058Z,100984.02
2023-03-04T15:35:19.806Z,100977.70
2023-03-04T15:37:52.522Z,100974.14
2023-03-04T15:40:24.074Z,100967.98
2023-03-04T15:42:53.880Z,100970.14
2023-03-04T15:45:24.621Z,100971.07
2023-03-04T15:47:53.006Z,100970.45
2023-03-04T15:50:21.902Z,100967.05
2023-03-04T15:52:51.244Z,100969.20
2023-03-04T15:55:21.512Z,100969.75
2023-03-04T15:57:52.771Z,100969.58
2023-03-04T16:00:21.841Z,100976.55
2023-03-04T16:02:50.564Z,100981.55
2023-03-04T16:05:19.014Z,100979.98
2023-03-04T16:07:49.765Z,100978.05
2023-03-04T16:10:20.964Z,100979.60
2023-03-04T16:12:49.373Z,100974.37
2023-03-04T16:15:28.392Z,100977.65
2023-03-04T16:17:57.212Z,100979.43
2023-03-04T16:20:29.055Z,100981.55
2023-03-04T16:23:01.233Z,100982.83
2023-03-04T16:25:31.209Z,100981.10
2023-03-04T16:28:02.915Z,100978.98
2023-03-04T16:30:31.888Z,100977.08
2023-03-04T16:33:01.084Z,100978.84
2023-03-04T16:35:30.787Z,100981.27
2023-03-04T16:37:59.471Z,100983.55
2023-03-04T16:40:29.814Z,100983.41
2023-03-04T16:42:59.092Z,100975.45
2023-03-04T16:45:30.460Z,100973.89
2023-03-04T16:47:58.822Z,100971.23
2023-03-04T16:50:28.445Z,100972.07
2023-03-04T16:52:57.221Z,100968.05
2023-03-04T16:55:27.867Z,100965.30
2023-03-04T16:57:56.212Z,100965.67
2023-03-04T17:00:25.730Z,100965.54
2023-03-04T17:02:58.777Z,100964.85
2023-03-04T17:05:29.721Z,100961.59
2023-03-04T17:07:59.820Z,100959.71
2023-03-04T17:10:28.556Z,100960.60
2023-03-04T17:12:57.863Z,100960.40
2023-03-04T17:15:27.468Z,100957.59
2023-03-04T17:17:55.903Z,100958.94
2023-03-04T17:20:28.842Z,100957.89
2023-03-04T17:22:57.522Z,100957.71
2023-03-04T17:25:25.894Z,100951.64
2023-03-04T17:27:54.371Z,100947.45
2023-03-04T17:30:23.881Z,100949.35
2023-03-04T17:32:54.622Z,100945.66
2023-03-04T17:35:25.906Z,100942.52
2023-03-04T17:37:54.233Z,100940.74
2023-03-04T17:40:24.356Z,100943.69
2023-03-04T17:42:52.730Z,100939.36
2023-03-04T17:45:21.199Z,100936.77
2023-03-04T17:47:50.005Z,100934.52
2023-03-04T17:50:22.782Z,100931.20
2023-03-04T17:52:51.779Z,100926.86
2023-03-04T17:55:20.261Z,100925.27
2023-03-04T17:57:53.144Z,100921.77
2023-03-04T18:00:22.043Z,100919.81
2023-03-04T18:02:50.300Z,100918.89
2023-03-04T18:05:18.694Z,100916.42
2023-03-04T18:07:47.062Z,100917.25
2023-03-04T18:10:17.915Z,100919.64
2023-03-04T18:12:47.711Z,100914.90
2023-03-04T18:15:17.407Z,100917.98
2023-03-04T18:17:46.414Z,100919.14
2023-03-04T18:20:15.213Z,100921.17
2023-03-04T18:22:44.907Z,100918.36
2023-03-04T18:25:13.797Z,100920.39
2023-03-04T18:27:42.495Z,100914.29
2023-03-04T18:30:13.649Z,100919.46
2023-03-04T18:32:51.963Z,100920.64
2023-03-04T18:35:22.710Z,100921.11
2023-03-04T18:37:51.767Z,100923.13
2023-03-04T18:40:20.340Z,100919.94
2023-03-04T18:42:48.934Z,100922.50
2023-03-04T18:45:21.723Z,100921.09
2023-03-04T18:47:51.543Z,100917.30
2023-03-04T18:50:22.259Z,100919.02
2023-03-04T18:52:55.042Z,100915.57
2023-03-04T18:55:23.627Z,100914.70
2023-03-04T18:57:53.230Z,100910.36
2023-03-04T19:00:22.549Z,100907.94
2023-03-04T19:02:57.365Z,100907.42
2023-03-04T19:05:27.778Z,100907.80
2023-03-04T19:07:56.476Z,100908.16
2023-03-04T19:10:26.192Z,100905.56
2023-03-04T19:12:57.632Z,100903.96
2023-03-04T19:15:26.321Z,100907.56
2023-03-04T19:17:55.209Z,100904.38
2023-03-04T19:20:23.798Z,100904.59
2023-03-04T19:22:52.478Z,100903.95
2023-03-04T19:25:21.168Z,100906.64
2023-03-04T19:27:51.691Z,100902.64
2023-03-04T19:30:20.279Z,100903.25
2023-03-04T19:32:49.372Z,100902.34
2023-03-04T19:35:18.428Z,100904.25
2023-03-04T19:37:46.742Z,100899.05
2023-03-04T19:40:15.445Z,100900.79
2023-03-04T19:42:43.808Z,100895.77
2023-03-04T19:45:12.180Z,100892.84
2023-03-04T19:47:41.592Z,100884.90
2023-03-04T19:50:16.522Z,100882.09
2023-03-04T19:52:45.000Z,100879.46
2023-03-04T19:55:20.747Z,100876.70
2023-03-04T19:57:49.430Z,100875.67
2023-03-04T20:00:18.687Z,100875.00
2023-03-04T20:02:49.461Z,100872.75
2023-03-04T20:05:18.273Z,100877.09
2023-03-04T20:07:50.315Z,100873.95
2023-03-04T20:10:19.827Z,100872.92
2023-03-04T20:12:48.196Z,100870.32
2023-03-04T20:15:16.780Z,100874.11
2023-03-04T20:17:45.464Z,100869.75
2023-03-04T20:20:14.658Z,100869.92
2023-03-04T20:22:44.688Z,100864.23
2023-03-04T20:25:13.770Z,100865.66
2023-03-04T20:27:43.376Z,100862.71
2023-03-04T20:30:12.474Z,100864.29
2023-03-04T20:32:41.168Z,100858.73
2023-03-04T20:35:14.251Z,100855.26
2023-03-04T20:37:42.628Z,100852.13
2023-03-04T20:40:12.644Z,100852.48
2023-03-04T20:42:40.914Z,100847.59
2023-03-04T20:45:12.273Z,100845.48
2023-03-04T20:47:41.055Z,100843.89
2023-03-04T20:50:11.267Z,100845.41
2023-03-04T20:52:42.107Z,100844.51
2023-03-04T20:55:11.002Z,100842.23
2023-03-04T20:57:40.315Z,100844.61
2023-03-04T21:00:10.006Z,100842.01
2023-03-04T21:02:40.226Z,100843.38
2023-03-04T21:05:09.327Z,100843.05
2023-03-04T21:07:37.658Z,100842.03
2023-03-04T21:10:08.803Z,100842.02
2023-03-04T21:12:37.324Z,100839.59
2023-03-04T21:15:08.936Z,100833.38
2023-03-04T21:17:40.123Z,100832.91
2023-03-04T21:20:09.369Z,100831.58
2023-03-04T21:22:37.907Z,100826.23
2023-03-04T21:25:07.411Z,100824.17
2023-03-04T21:27:42.762Z,100826.60
2023-03-04T21:30:12.361Z,100829.92
2023-03-04T21:32:40.748Z,100826.10
2023-03-04T21:35:11.472Z,100821.95
2023-03-04T21:37:42.009Z,100821.30
2023-03-04T21:40:11.731Z,100824.42
2023-03-04T21:42:40.179Z,100823.56
2023-03-04T21:45:09.946Z,100824.97
2023-03-04T21:47:38.922Z,100825.46
2023-03-04T21:50:07.914Z,100821.64
2023-03-04T21:52:37.724Z,100821.30
2023-03-04T21:55:06.668Z,100823.54
2023-03-04T21:57:36.426Z,100821.63
2023-03-04T22:00:06.598Z,100823.01
2023-03-04T22:02:40.452Z,100819.02
2023-03-04T22:05:09.860Z,100812.94
2023-03-04T22:07:38.131Z,100809.83
2023-03-04T22:10:07.645Z,100807.76
2023-03-04T22:12:36.630Z,100808.63
2023-03-04T22:15:05.933Z,100802.24
2023-03-04T22:17:35.411Z,100804.89
2023-03-04T22:20:04.840Z,100800.94
2023-03-04T22:22:36.392Z,100803.23
2023-03-04T22:25:07.004Z,100803.66
2023-03-04T22:27:35.406Z,100807.19
2023-03-04T22:30:04.729Z,100807.38
2023-03-04T22:32:33.362Z,100809.65
2023-03-04T22:35:02.283Z,100808.30
2023-03-04T22:37:30.874Z,100807.11
2023-03-04T22:40:00.289Z,100806.42
2023-03-04T22:42:28.854Z,100807.00
2023-03-04T22:44:57.557Z,100807.92
2023-03-04T22:47:25.816Z,100810.05
2023-03-04T22:49:54.294Z,100807.16
2023-03-04T22:52:28.837Z,100809.14
2023-03-04T22:54:57.500Z,100809.20
2023-03-04T22:57:26.078Z,100809.09
2023-03-04T22:59:55.079Z,100810.39
2023-03-04T23:02:24.561Z,100811.65
2023-03-04T23:04:53.256Z,100821.92
2023-03-04T23:07:22.047Z,100824.05
2023-03-04T23:09:50.422Z,100825.83
2023-03-04T23:12:18.905Z,100828.85
2023-03-04T23:14:47.315Z,100823.19
2023-03-04T23:17:15.966Z,100822.02
2023-03-04T23:19:44.448Z,100826.96
2023-03-04T23:22:17.737Z,100834.31
2023-03-04T23:24:46.120Z,100834.90
2023-03-04T23:27:14.701Z,100836.38
2023-03-04T23:29:43.997Z,100841.11
2023-03-04T23:32:12.505Z,100844.65
2023-03-04T23:34:44.379Z,100848.32
2023-03-04T23:37:12.733Z,100850.77
2023-03-04T23:39:41.002Z,100852.36
2023-03-04T23:42:09.478Z,100856.58
2023-03-04T23:44:38.063Z,100853.71
2023-03-04T23:47:08.280Z,100856.73
2023-03-04T23:49:37.071Z,100857.04
2023-03-04T23:52:06.721Z,100858.15
2023-03-04T23:54:35.257Z,100859.80
2023-03-04T23:57:03.745Z,100859.55
2023-03-04T23:59:33.133Z,100863.58
